createdAt,value
2023-09-08T00:00:38.311Z,16.04
2023-09-08T00:01:39.988Z,16.02
2023-09-08T00:02:41.802Z,16.01
2023-09-08T00:03:43.498Z,16.05
2023-09-08T00:04:45.200Z,16.12
2023-09-08T00:05:46.901Z,16.14
2023-09-08T00:06:48.669Z,16.15
2023-09-08T00:07:50.382Z,16.13
2023-09-08T00:08:52.136Z,16.12
2023-09-08T00:09:53.752Z,16.09
2023-09-08T00:10:55.415Z,16.06
2023-09-08T00:11:57.125Z,16.03
2023-09-08T00:12:58.905Z,16.03
2023-09-08T00:14:00.731Z,16.04
2023-09-08T00:15:02.416Z,16.03
2023-09-08T00:16:04.250Z,16.04
2023-09-08T00:17:06.040Z,16.03
2023-09-08T00:18:07.744Z,16.02
2023-09-08T00:19:11.092Z,16.02
2023-09-08T00:20:12.874Z,16.03
2023-09-08T00:21:14.531Z,15.97
2023-09-08T00:22:16.184Z,15.98
2023-09-08T00:23:17.819Z,15.96
2023-09-08T00:24:19.660Z,15.94
2023-09-08T00:25:21.315Z,15.90
2023-09-08T00:26:23.107Z,15.86
2023-09-08T00:27:25.227Z,15.81
2023-09-08T00:28:26.973Z,15.76
2023-09-08T00:29:28.758Z,15.72
2023-09-08T00:30:30.562Z,15.66
2023-09-08T00:31:32.207Z,15.63
2023-09-08T00:32:34.016Z,15.58
2023-09-08T00:33:36.016Z,15.53
2023-09-08T00:34:37.719Z,15.48
2023-09-08T00:35:39.549Z,15.44
2023-09-08T00:36:41.687Z,15.48
2023-09-08T00:37:43.589Z,15.49
2023-09-08T00:38:45.383Z,15.45
2023-09-08T00:39:47.253Z,15.46
2023-09-08T00:40:48.923Z,15.49
2023-09-08T00:41:50.601Z,15.47
2023-09-08T00:42:52.216Z,15.48
2023-09-08T00:43:53.876Z,15.48
2023-09-08T00:44:55.538Z,15.51
2023-09-08T00:45:57.675Z,15.54
2023-09-08T00:46:59.649Z,15.54
2023-09-08T00:48:01.477Z,15.54
2023-09-08T00:49:03.428Z,15.51
2023-09-08T00:50:06.016Z,15.47
2023-09-08T00:51:09.302Z,15.44
2023-09-08T00:52:11.279Z,15.45
2023-09-08T00:53:13.712Z,15.46
2023-09-08T00:54:15.966Z,15.44
2023-09-08T00:55:18.590Z,15.40
2023-09-08T00:56:20.452Z,15.41
2023-09-08T00:57:22.153Z,15.43
2023-09-08T00:58:23.912Z,15.42
2023-09-08T00:59:26.150Z,15.38
2023-09-08T01:00:27.990Z,15.39
2023-09-08T01:01:30.036Z,15.37
2023-09-08T01:02:31.769Z,15.31
2023-09-08T01:03:33.516Z,15.32
2023-09-08T01:04:36.529Z,15.34
2023-09-08T01:05:40.187Z,15.34
2023-09-08T01:06:43.360Z,15.34
2023-09-08T01:07:45.932Z,15.32
2023-09-08T01:08:48.051Z,15.33
2023-09-08T01:09:50.142Z,15.35
2023-09-08T01:10:51.996Z,15.37
2023-09-08T01:11:53.724Z,15.38
2023-09-08T01:12:55.394Z,15.41
2023-09-08T01:13:57.019Z,15.40
2023-09-08T01:14:58.708Z,15.38
2023-09-08T01:16:00.491Z,15.34
2023-09-08T01:17:02.260Z,15.35
2023-09-08T01:18:05.905Z,15.37
2023-09-08T01:19:14.022Z,15.36
2023-09-08T01:20:28.439Z,15.33
2023-09-08T01:21:59.234Z,15.30
2023-09-08T01:23:16.151Z,15.27
2023-09-08T01:24:39.232Z,15.24
2023-09-08T01:26:18.248Z,15.26
2023-09-08T01:27:21.031Z,15.28
2023-09-08T01:28:23.486Z,15.30
2023-09-08T01:29:26.485Z,15.31
2023-09-08T01:30:30.994Z,15.32
2023-09-08T01:31:32.826Z,15.32
2023-09-08T01:32:35.645Z,15.32
2023-09-08T01:33:38.013Z,15.32
2023-09-08T01:34:39.900Z,15.34
2023-09-08T01:35:41.648Z,15.31
2023-09-08T01:36:43.693Z,15.31
2023-09-08T01:37:49.469Z,15.27
2023-09-08T01:38:51.294Z,15.22
2023-09-08T01:39:53.151Z,15.20
2023-09-08T01:40:55.799Z,15.22
2023-09-08T01:41:57.690Z,15.19
2023-09-08T01:43:00.023Z,15.20
2023-09-08T01:44:02.087Z,15.17
2023-09-08T01:45:04.112Z,15.17
2023-09-08T01:46:06.024Z,15.17
2023-09-08T01:47:07.845Z,15.19
2023-09-08T01:48:09.891Z,15.20
2023-09-08T01:49:11.603Z,15.18
2023-09-08T01:50:13.319Z,15.17
2023-09-08T01:51:14.966Z,15.20
2023-09-08T01:52:16.606Z,15.22
2023-09-08T01:53:18.244Z,15.19
2023-09-08T01:54:19.901Z,15.21
2023-09-08T01:55:21.594Z,15.18
2023-09-08T01:56:23.230Z,15.22
2023-09-08T01:57:25.212Z,15.24
2023-09-08T01:58:26.860Z,15.26
2023-09-08T01:59:28.563Z,15.20
2023-09-08T02:00:30.288Z,15.18
2023-09-08T02:01:32.028Z,15.20
2023-09-08T02:02:33.733Z,15.21
2023-09-08T02:03:35.708Z,15.22
2023-09-08T02:04:37.567Z,15.20
2023-09-08T02:05:41.080Z,15.22
2023-09-08T02:06:42.789Z,15.20
2023-09-08T02:07:44.473Z,15.18
2023-09-08T02:08:46.201Z,15.18
2023-09-08T02:09:47.846Z,15.17
2023-09-08T02:10:49.542Z,15.13
2023-09-08T02:11:51.186Z,15.11
2023-09-08T02:12:53.655Z,15.09
2023-09-08T02:13:58.043Z,15.08
2023-09-08T02:15:00.280Z,15.03
2023-09-08T02:16:02.183Z,15.06
2023-09-08T02:17:04.286Z,15.08
2023-09-08T02:18:08.067Z,15.10
2023-09-08T02:19:09.761Z,15.08
2023-09-08T02:20:11.926Z,15.08
2023-09-08T02:21:13.635Z,15.08
2023-09-08T02:22:15.315Z,15.09
2023-09-08T02:23:16.998Z,15.08
2023-09-08T02:24:18.687Z,15.08
2023-09-08T02:25:20.344Z,15.03
2023-09-08T02:26:22.012Z,14.99
2023-09-08T02:27:23.669Z,14.96
2023-09-08T02:28:26.677Z,14.89
2023-09-08T02:29:28.691Z,14.88
2023-09-08T02:30:30.678Z,14.87
2023-09-08T02:31:32.616Z,14.87
2023-09-08T02:32:34.901Z,14.88
2023-09-08T02:33:36.883Z,14.89
2023-09-08T02:34:38.709Z,14.89
2023-09-08T02:35:41.748Z,14.94
2023-09-08T02:36:44.312Z,14.95
2023-09-08T02:37:46.083Z,14.92
2023-09-08T02:38:48.234Z,14.91
2023-09-08T02:39:49.909Z,14.91
2023-09-08T02:40:51.601Z,14.97
2023-09-08T02:41:53.297Z,14.86
2023-09-08T02:42:54.950Z,14.77
2023-09-08T02:43:56.811Z,14.78
2023-09-08T02:44:58.898Z,14.77
2023-09-08T02:46:00.710Z,14.76
2023-09-08T02:47:02.544Z,14.74
2023-09-08T02:48:04.735Z,14.74
2023-09-08T02:49:07.241Z,14.72
2023-09-08T02:50:09.399Z,14.75
2023-09-08T02:51:11.050Z,14.84
2023-09-08T02:52:12.682Z,14.89
2023-09-08T02:53:14.429Z,14.94
2023-09-08T02:54:16.150Z,14.94
2023-09-08T02:55:17.788Z,14.90
2023-09-08T02:56:19.677Z,14.86
2023-09-08T02:57:21.399Z,14.81
2023-09-08T02:58:23.414Z,14.74
2023-09-08T02:59:25.058Z,14.70
2023-09-08T03:00:26.708Z,14.68
2023-09-08T03:01:28.414Z,14.70
2023-09-08T03:02:31.768Z,14.70
2023-09-08T03:03:33.753Z,14.69
2023-09-08T03:04:35.547Z,14.68
2023-09-08T03:05:37.450Z,14.67
2023-09-08T03:06:39.119Z,14.65
2023-09-08T03:07:40.800Z,14.61
2023-09-08T03:08:42.831Z,14.59
2023-09-08T03:09:44.872Z,14.55
2023-09-08T03:10:46.496Z,14.52
2023-09-08T03:11:48.222Z,14.52
2023-09-08T03:12:49.925Z,14.50
2023-09-08T03:13:52.110Z,14.47
2023-09-08T03:14:53.779Z,14.47
2023-09-08T03:15:56.405Z,14.45
2023-09-08T03:16:58.115Z,14.40
2023-09-08T03:18:00.658Z,14.36
2023-09-08T03:19:02.371Z,14.33
2023-09-08T03:20:04.300Z,14.29
2023-09-08T03:21:07.096Z,14.27
2023-09-08T03:22:08.718Z,14.25
2023-09-08T03:23:10.356Z,14.21
2023-09-08T03:24:12.058Z,14.19
2023-09-08T03:25:17.156Z,14.20
2023-09-08T03:26:18.880Z,14.16
2023-09-08T03:27:20.556Z,14.13
2023-09-08T03:28:22.240Z,14.07
2023-09-08T03:29:23.871Z,14.01
2023-09-08T03:30:25.599Z,14.04
2023-09-08T03:31:27.545Z,14.08
2023-09-08T03:32:29.898Z,14.12
2023-09-08T03:33:32.242Z,14.13
2023-09-08T03:34:34.717Z,14.13
2023-09-08T03:35:36.578Z,14.08
2023-09-08T03:36:38.482Z,14.03
2023-09-08T03:37:40.222Z,14.02
2023-09-08T03:38:41.867Z,14.02
2023-09-08T03:39:43.556Z,13.99
2023-09-08T03:40:45.397Z,13.97
2023-09-08T03:41:47.147Z,13.93
2023-09-08T03:42:48.893Z,13.86
2023-09-08T03:43:50.594Z,13.88
2023-09-08T03:44:52.886Z,13.89
2023-09-08T03:45:54.849Z,13.85
2023-09-08T03:46:57.515Z,13.84
2023-09-08T03:47:59.218Z,13.77
2023-09-08T03:49:00.857Z,13.76
2023-09-08T03:50:02.812Z,13.75
2023-09-08T03:51:04.576Z,13.75
2023-09-08T03:52:06.404Z,13.77
2023-09-08T03:53:08.088Z,13.76
2023-09-08T03:54:10.121Z,13.73
2023-09-08T03:55:11.747Z,13.74
2023-09-08T03:56:13.459Z,13.75
2023-09-08T03:57:15.402Z,13.75
2023-09-08T03:58:17.106Z,13.76
2023-09-08T03:59:18.873Z,13.77
2023-09-08T04:00:20.647Z,13.84
2023-09-08T04:01:22.531Z,13.83
2023-09-08T04:02:24.298Z,13.84
2023-09-08T04:03:26.133Z,13.88
2023-09-08T04:04:27.875Z,13.87
2023-09-08T04:05:29.679Z,13.84
2023-09-08T04:06:31.619Z,13.84
2023-09-08T04:07:33.396Z,13.85
2023-09-08T04:08:35.078Z,13.86
2023-09-08T04:09:37.146Z,13.88
2023-09-08T04:10:38.779Z,13.89
2023-09-08T04:11:40.493Z,13.89
2023-09-08T04:12:42.450Z,13.94
2023-09-08T04:13:44.124Z,13.91
2023-09-08T04:14:45.757Z,13.94
2023-09-08T04:15:47.546Z,13.93
2023-09-08T04:16:49.296Z,13.94
2023-09-08T04:17:51.065Z,13.91
2023-09-08T04:18:55.096Z,13.93
2023-09-08T04:19:58.348Z,13.91
2023-09-08T04:21:00.204Z,13.93
2023-09-08T04:22:01.920Z,13.94
2023-09-08T04:23:04.188Z,13.95
2023-09-08T04:24:06.307Z,13.96
2023-09-08T04:25:08.411Z,14.00
2023-09-08T04:26:10.105Z,14.02
2023-09-08T04:27:14.580Z,14.05
2023-09-08T04:28:17.384Z,14.08
2023-09-08T04:29:19.592Z,14.11
2023-09-08T04:30:21.360Z,14.14
2023-09-08T04:31:23.240Z,14.12
2023-09-08T04:32:25.092Z,14.13
2023-09-08T04:33:27.163Z,14.15
2023-09-08T04:34:28.934Z,14.15
2023-09-08T04:35:30.672Z,14.16
2023-09-08T04:36:32.399Z,14.18
2023-09-08T04:37:34.049Z,14.19
2023-09-08T04:38:35.708Z,14.21
2023-09-08T04:39:37.499Z,14.25
2023-09-08T04:40:42.164Z,14.25
2023-09-08T04:41:44.451Z,14.26
2023-09-08T04:42:46.220Z,14.24
2023-09-08T04:43:48.063Z,14.26
2023-09-08T04:44:50.062Z,14.27
2023-09-08T04:45:51.781Z,14.28
2023-09-08T04:46:54.511Z,14.30
2023-09-08T04:47:56.225Z,14.32
2023-09-08T04:48:57.864Z,14.33
2023-09-08T04:49:59.884Z,14.34
2023-09-08T04:51:01.573Z,14.37
2023-09-08T04:52:04.098Z,14.38
2023-09-08T04:53:06.183Z,14.38
2023-09-08T04:54:07.843Z,14.35
2023-09-08T04:55:10.555Z,14.32
2023-09-08T04:56:14.246Z,14.28
2023-09-08T04:57:23.392Z,14.22
2023-09-08T04:58:27.886Z,14.16
2023-09-08T04:59:30.405Z,14.14
2023-09-08T05:00:32.140Z,14.14
2023-09-08T05:01:34.080Z,14.21
2023-09-08T05:02:37.194Z,14.32
2023-09-08T05:03:40.186Z,14.48
2023-09-08T05:04:43.104Z,14.65
2023-09-08T05:05:46.156Z,14.83
2023-09-08T05:06:48.632Z,14.99
2023-09-08T05:07:52.293Z,15.15
2023-09-08T05:08:54.843Z,15.28
2023-09-08T05:09:58.905Z,15.40
2023-09-08T05:11:04.185Z,15.54
2023-09-08T05:12:06.993Z,15.67
2023-09-08T05:13:20.509Z,15.83
2023-09-08T05:14:31.785Z,16.03
2023-09-08T05:15:35.491Z,16.21
2023-09-08T05:16:38.699Z,16.40
2023-09-08T05:17:41.930Z,16.61
2023-09-08T05:18:43.949Z,16.80
2023-09-08T05:19:45.621Z,16.96
2023-09-08T05:20:48.889Z,17.12
2023-09-08T05:21:55.253Z,17.26
2023-09-08T05:22:57.085Z,17.41
2023-09-08T05:23:59.096Z,17.53
2023-09-08T05:25:01.461Z,17.63
2023-09-08T05:26:03.242Z,17.71
2023-09-08T05:27:05.363Z,17.80
2023-09-08T05:28:07.269Z,17.88
2023-09-08T05:29:09.716Z,17.96
2023-09-08T05:30:11.698Z,18.03
2023-09-08T05:31:13.600Z,18.15
2023-09-08T05:32:16.016Z,18.22
2023-09-08T05:33:17.806Z,18.26
2023-09-08T05:34:19.546Z,18.33
2023-09-08T05:35:21.207Z,18.39
2023-09-08T05:36:24.314Z,18.49
2023-09-08T05:37:26.763Z,18.59
2023-09-08T05:38:28.384Z,18.65
2023-09-08T05:39:30.009Z,18.71
2023-09-08T05:40:31.938Z,18.76
2023-09-08T05:41:33.588Z,18.86
2023-09-08T05:42:36.020Z,18.93
2023-09-08T05:43:37.907Z,19.00
2023-09-08T05:44:39.650Z,19.10
2023-09-08T05:45:41.569Z,19.08
2023-09-08T05:46:43.287Z,19.08
2023-09-08T05:47:45.055Z,19.15
2023-09-08T05:48:47.080Z,19.17
2023-09-08T05:49:48.881Z,19.27
2023-09-08T05:50:50.641Z,19.19
2023-09-08T05:51:52.988Z,18.89
2023-09-08T05:52:54.743Z,18.88
2023-09-08T05:53:57.604Z,18.99
2023-09-08T05:55:01.208Z,18.95
2023-09-08T05:56:05.287Z,18.88
2023-09-08T05:57:07.376Z,18.91
2023-09-08T05:58:09.075Z,19.09
2023-09-08T05:59:10.690Z,19.16
2023-09-08T06:00:12.834Z,18.97
2023-09-08T06:01:22.730Z,19.00
2023-09-08T06:02:25.227Z,19.07
2023-09-08T06:03:27.385Z,19.22
2023-09-08T06:04:29.233Z,19.30
2023-09-08T06:05:31.075Z,19.44
2023-09-08T06:06:32.714Z,19.58
2023-09-08T06:07:37.146Z,19.74
2023-09-08T06:08:40.667Z,19.83
2023-09-08T06:09:42.594Z,19.98
2023-09-08T06:10:44.244Z,20.13
2023-09-08T06:11:46.004Z,20.30
2023-09-08T06:12:47.972Z,20.43
2023-09-08T06:13:49.860Z,20.58
2023-09-08T06:14:51.620Z,20.75
2023-09-08T06:15:53.323Z,20.90
2023-09-08T06:16:55.114Z,20.97
2023-09-08T06:17:57.461Z,20.97
2023-09-08T06:18:59.164Z,20.85
2023-09-08T06:20:01.333Z,20.95
2023-09-08T06:21:03.105Z,21.13
2023-09-08T06:22:04.837Z,21.30
2023-09-08T06:23:06.669Z,21.49
2023-09-08T06:24:08.645Z,21.70
2023-09-08T06:25:11.286Z,21.93
2023-09-08T06:26:13.821Z,22.09
2023-09-08T06:27:16.215Z,22.25
2023-09-08T06:28:18.274Z,22.45
2023-09-08T06:29:19.952Z,22.64
2023-09-08T06:30:21.704Z,22.85
2023-09-08T06:31:24.308Z,23.02
2023-09-08T06:32:26.078Z,23.24
2023-09-08T06:33:27.960Z,23.42
2023-09-08T06:34:30.451Z,23.55
2023-09-08T06:35:32.790Z,23.67
2023-09-08T06:36:34.634Z,23.71
2023-09-08T06:37:37.862Z,23.86
2023-09-08T06:38:39.748Z,24.01
2023-09-08T06:39:41.441Z,24.16
2023-09-08T06:40:43.365Z,24.27
2023-09-08T06:41:45.040Z,24.33
2023-09-08T06:42:49.759Z,24.21
2023-09-08T06:44:01.050Z,23.90
2023-09-08T06:45:04.176Z,23.81
2023-09-08T06:46:05.926Z,23.97
2023-09-08T06:47:08.601Z,24.19
2023-09-08T06:48:10.868Z,24.32
2023-09-08T06:49:12.578Z,24.37
2023-09-08T06:50:14.307Z,24.31
2023-09-08T06:51:16.000Z,24.31
2023-09-08T06:52:18.999Z,23.91
2023-09-08T06:53:20.728Z,23.56
2023-09-08T06:54:22.814Z,23.56
2023-09-08T06:55:24.556Z,23.72
2023-09-08T06:56:26.252Z,23.83
2023-09-08T06:57:28.262Z,23.94
2023-09-08T06:58:29.964Z,23.89
2023-09-08T06:59:32.241Z,23.92
2023-09-08T07:00:34.543Z,23.90
2023-09-08T07:01:37.976Z,23.84
2023-09-08T07:02:40.973Z,23.59
2023-09-08T07:03:43.081Z,23.54
2023-09-08T07:04:45.983Z,23.50
2023-09-08T07:05:47.874Z,23.52
2023-09-08T07:06:49.878Z,23.53
2023-09-08T07:07:51.723Z,23.38
2023-09-08T07:08:53.370Z,23.07
2023-09-08T07:09:56.263Z,22.82
2023-09-08T07:10:58.040Z,22.79
2023-09-08T07:11:59.819Z,22.90
2023-09-08T07:13:01.577Z,22.98
2023-09-08T07:14:03.507Z,22.96
2023-09-08T07:15:05.667Z,22.96
2023-09-08T07:16:08.026Z,22.91
2023-09-08T07:17:10.618Z,22.76
2023-09-08T07:18:12.398Z,22.62
2023-09-08T07:19:14.135Z,22.58
2023-09-08T07:20:15.928Z,22.66
2023-09-08T07:21:17.848Z,22.57
2023-09-08T07:22:20.187Z,22.57
2023-09-08T07:23:21.882Z,22.58
2023-09-08T07:24:23.655Z,22.65
2023-09-08T07:25:25.355Z,22.70
2023-09-08T07:26:27.147Z,22.79
2023-09-08T07:27:29.153Z,22.83
2023-09-08T07:28:31.325Z,22.85
2023-09-08T07:29:36.858Z,22.90
2023-09-08T07:30:38.590Z,22.88
2023-09-08T07:31:40.452Z,22.86
2023-09-08T07:32:42.386Z,22.78
2023-09-08T07:33:44.155Z,22.72
2023-09-08T07:34:46.335Z,22.71
2023-09-08T07:35:48.026Z,22.79
2023-09-08T07:36:49.880Z,22.87
2023-09-08T07:37:51.664Z,22.97
2023-09-08T07:38:53.480Z,23.07
2023-09-08T07:39:55.662Z,23.13
2023-09-08T07:40:57.298Z,23.16
2023-09-08T07:42:01.544Z,23.24
2023-09-08T07:43:03.833Z,23.25
2023-09-08T07:44:06.006Z,23.26
2023-09-08T07:45:08.654Z,23.31
2023-09-08T07:46:10.344Z,23.33
2023-09-08T07:47:12.194Z,23.39
2023-09-08T07:48:13.894Z,23.44
2023-09-08T07:49:16.017Z,23.54
2023-09-08T07:50:28.715Z,23.54
2023-09-08T07:51:30.379Z,23.50
2023-09-08T07:52:32.197Z,23.48
2023-09-08T07:53:33.867Z,23.53
2023-09-08T07:54:35.699Z,23.53
2023-09-08T07:55:37.405Z,23.52
2023-09-08T07:56:39.104Z,23.54
2023-09-08T07:57:43.451Z,23.53
2023-09-08T07:58:45.192Z,23.55
2023-09-08T07:59:46.830Z,23.60
2023-09-08T08:00:48.803Z,23.61
2023-09-08T08:01:50.484Z,23.53
2023-09-08T08:02:55.291Z,23.58
2023-09-08T08:03:57.038Z,23.63
2023-09-08T08:04:59.084Z,23.72
2023-09-08T08:06:00.745Z,23.79
2023-09-08T08:07:02.489Z,23.87
2023-09-08T08:08:04.388Z,23.95
2023-09-08T08:09:06.286Z,24.01
2023-09-08T08:10:08.446Z,23.96
2023-09-08T08:11:14.765Z,23.99
2023-09-08T08:12:16.606Z,24.09
2023-09-08T08:13:18.311Z,24.14
2023-09-08T08:14:19.939Z,24.22
2023-09-08T08:15:22.167Z,24.28
2023-09-08T08:16:24.612Z,24.38
2023-09-08T08:17:26.546Z,24.48
2023-09-08T08:18:28.323Z,24.54
2023-09-08T08:19:30.193Z,24.60
2023-09-08T08:20:31.883Z,24.40
2023-09-08T08:21:33.643Z,24.35
2023-09-08T08:22:35.517Z,24.40
2023-09-08T08:23:37.179Z,24.47
2023-09-08T08:24:39.099Z,24.55
2023-09-08T08:25:40.743Z,24.61
2023-09-08T08:26:42.394Z,24.62
2023-09-08T08:27:44.092Z,24.59
2023-09-08T08:28:46.102Z,24.63
2023-09-08T08:29:47.723Z,24.63
2023-09-08T08:30:49.510Z,24.63
2023-09-08T08:31:51.203Z,24.70
2023-09-08T08:32:52.941Z,24.77
2023-09-08T08:33:54.721Z,24.76
2023-09-08T08:34:56.687Z,24.81
2023-09-08T08:35:58.387Z,24.86
2023-09-08T08:37:00.008Z,24.96
2023-09-08T08:38:01.817Z,25.07
2023-09-08T08:39:03.622Z,25.11
2023-09-08T08:40:05.913Z,25.15
2023-09-08T08:41:07.601Z,25.21
2023-09-08T08:42:10.349Z,25.28
2023-09-08T08:43:12.377Z,25.38
2023-09-08T08:44:16.486Z,25.47
2023-09-08T08:45:20.157Z,25.53
2023-09-08T08:46:23.419Z,25.49
2023-09-08T08:47:26.824Z,25.45
2023-09-08T08:48:30.709Z,25.48
2023-09-08T08:49:33.641Z,25.53
2023-09-08T08:50:36.937Z,25.59
2023-09-08T08:51:40.443Z,25.57
2023-09-08T08:52:42.313Z,25.46
2023-09-08T08:53:44.043Z,25.45
2023-09-08T08:54:46.545Z,25.44
2023-09-08T08:55:50.294Z,25.52
2023-09-08T08:56:52.350Z,25.59
2023-09-08T08:57:54.220Z,25.61
2023-09-08T08:58:57.589Z,25.58
2023-09-08T09:00:01.196Z,25.59
2023-09-08T09:01:04.376Z,25.61
2023-09-08T09:02:06.525Z,25.59
2023-09-08T09:03:15.333Z,25.64
2023-09-08T09:04:18.659Z,25.71
2023-09-08T09:05:20.515Z,25.67
2023-09-08T09:06:22.404Z,25.72
2023-09-08T09:07:24.936Z,25.80
2023-09-08T09:08:27.986Z,25.86
2023-09-08T09:09:29.970Z,25.92
2023-09-08T09:10:32.678Z,26.00
2023-09-08T09:11:34.350Z,26.07
2023-09-08T09:12:39.245Z,26.19
2023-09-08T09:13:40.879Z,26.27
2023-09-08T09:14:48.263Z,26.29
2023-09-08T09:15:52.298Z,26.12
2023-09-08T09:16:57.269Z,26.14
2023-09-08T09:18:06.912Z,26.22
2023-09-08T09:19:09.153Z,26.17
2023-09-08T09:20:17.936Z,26.20
2023-09-08T09:21:19.612Z,26.27
2023-09-08T09:22:22.217Z,26.33
2023-09-08T09:23:30.049Z,26.40
2023-09-08T09:24:33.504Z,26.39
2023-09-08T09:25:35.302Z,26.48
2023-09-08T09:26:37.159Z,26.57
2023-09-08T09:27:38.830Z,26.66
2023-09-08T09:28:49.723Z,26.79
2023-09-08T09:29:51.528Z,26.85
2023-09-08T09:30:54.141Z,26.91
2023-09-08T09:32:05.258Z,26.98
2023-09-08T09:33:07.133Z,27.04
2023-09-08T09:34:08.854Z,27.12
2023-09-08T09:35:10.581Z,27.16
2023-09-08T09:36:21.756Z,27.19
2023-09-08T09:37:24.403Z,27.24
2023-09-08T09:38:27.593Z,27.30
2023-09-08T09:39:29.259Z,27.31
2023-09-08T09:40:30.935Z,27.20
2023-09-08T09:41:32.651Z,27.25
2023-09-08T09:42:34.465Z,27.34
2023-09-08T09:43:36.298Z,27.42
2023-09-08T09:44:38.027Z,27.48
2023-09-08T09:45:40.934Z,27.55
2023-09-08T09:46:46.637Z,27.66
2023-09-08T09:47:48.944Z,27.74
2023-09-08T09:48:56.985Z,27.76
2023-09-08T09:49:58.686Z,27.73
2023-09-08T09:51:01.578Z,27.72
2023-09-08T09:52:03.932Z,27.65
2023-09-08T09:53:11.293Z,27.69
2023-09-08T09:54:13.219Z,27.73
2023-09-08T09:55:14.850Z,27.81
2023-09-08T09:56:18.380Z,27.88
2023-09-08T09:57:22.301Z,27.95
2023-09-08T09:58:26.001Z,27.99
2023-09-08T09:59:28.148Z,27.97
2023-09-08T10:00:29.861Z,28.00
2023-09-08T10:01:33.229Z,27.99
2023-09-08T10:02:35.630Z,28.00
2023-09-08T10:03:37.447Z,28.06
2023-09-08T10:04:41.581Z,28.04
2023-09-08T10:05:43.379Z,28.03
2023-09-08T10:06:46.485Z,27.99
2023-09-08T10:07:51.464Z,28.03
2023-09-08T10:08:55.208Z,28.10
2023-09-08T10:09:56.880Z,28.14
2023-09-08T10:11:00.315Z,28.19
2023-09-08T10:12:05.623Z,28.22
2023-09-08T10:13:08.463Z,28.25
2023-09-08T10:14:12.177Z,28.28
2023-09-08T10:15:19.339Z,28.33
2023-09-08T10:16:22.283Z,28.39
2023-09-08T10:17:28.840Z,28.45
2023-09-08T10:18:32.257Z,28.50
2023-09-08T10:19:35.992Z,28.51
2023-09-08T10:20:39.038Z,28.56
2023-09-08T10:21:42.888Z,28.51
2023-09-08T10:22:45.874Z,28.51
2023-09-08T10:23:58.358Z,28.57
2023-09-08T10:25:05.103Z,28.55
2023-09-08T10:26:11.012Z,28.50
2023-09-08T10:27:13.327Z,28.44
2023-09-08T10:28:16.960Z,28.39
2023-09-08T10:29:19.454Z,28.31
2023-09-08T10:30:22.471Z,28.35
2023-09-08T10:31:29.192Z,28.39
2023-09-08T10:32:32.598Z,28.43
2023-09-08T10:33:36.978Z,28.39
2023-09-08T10:34:40.045Z,28.33
2023-09-08T10:35:43.369Z,28.24
2023-09-08T10:36:45.185Z,28.25
2023-09-08T10:37:46.845Z,28.35
2023-09-08T10:38:48.520Z,28.50
2023-09-08T10:39:50.270Z,28.63
2023-09-08T10:40:52.972Z,28.70
2023-09-08T10:42:17.296Z,28.76
2023-09-08T10:43:20.080Z,28.71
2023-09-08T10:44:23.353Z,28.70
2023-09-08T10:45:26.647Z,28.75
2023-09-08T10:46:29.960Z,28.82
2023-09-08T10:47:48.164Z,28.83
2023-09-08T10:48:49.911Z,28.80
2023-09-08T10:49:52.399Z,28.73
2023-09-08T10:50:54.044Z,28.72
2023-09-08T10:52:08.919Z,28.76
2023-09-08T10:53:13.146Z,28.67
2023-09-08T10:54:45.066Z,28.61
2023-09-08T10:56:15.808Z,28.66
2023-09-08T10:57:19.912Z,28.76
2023-09-08T10:58:32.099Z,28.76
2023-09-08T10:59:39.209Z,28.80
2023-09-08T11:00:45.906Z,28.84
2023-09-08T11:01:48.794Z,28.91
2023-09-08T11:02:51.239Z,28.99
2023-09-08T11:03:53.720Z,29.06
2023-09-08T11:04:56.207Z,29.02
2023-09-08T11:05:58.469Z,29.05
2023-09-08T11:07:00.220Z,29.12
2023-09-08T11:08:01.868Z,29.16
2023-09-08T11:09:09.447Z,29.17
2023-09-08T11:10:12.612Z,29.20
2023-09-08T11:11:16.114Z,29.21
2023-09-08T11:12:18.001Z,29.22
2023-09-08T11:13:19.622Z,29.26
2023-09-08T11:14:21.333Z,29.28
2023-09-08T11:15:23.394Z,29.31
2023-09-08T11:16:25.441Z,29.36
2023-09-08T11:17:27.934Z,29.40
2023-09-08T11:18:30.945Z,29.38
2023-09-08T11:19:49.362Z,29.37
2023-09-08T11:20:53.917Z,29.37
2023-09-08T11:21:56.632Z,29.23
2023-09-08T11:22:59.070Z,29.20
2023-09-08T11:24:00.772Z,29.25
2023-09-08T11:25:03.130Z,29.07
2023-09-08T11:26:05.119Z,29.01
2023-09-08T11:27:06.788Z,29.00
2023-09-08T11:28:08.527Z,28.99
2023-09-08T11:29:10.968Z,29.02
2023-09-08T11:30:13.648Z,29.00
2023-09-08T11:31:15.381Z,28.99
2023-09-08T11:32:17.122Z,28.96
2023-09-08T11:33:20.702Z,29.00
2023-09-08T11:34:22.416Z,29.04
2023-09-08T11:35:27.904Z,29.06
2023-09-08T11:36:30.540Z,29.08
2023-09-08T11:37:32.207Z,29.15
2023-09-08T11:38:34.051Z,29.21
2023-09-08T11:39:42.110Z,29.25
2023-09-08T11:40:43.932Z,29.27
2023-09-08T11:41:46.116Z,29.24
2023-09-08T11:42:47.854Z,29.27
2023-09-08T11:43:50.713Z,29.35
2023-09-08T11:44:52.389Z,29.35
2023-09-08T11:45:54.296Z,29.40
2023-09-08T11:46:56.269Z,29.47
2023-09-08T11:47:58.548Z,29.50
2023-09-08T11:49:00.486Z,29.50
2023-09-08T11:50:03.560Z,29.40
2023-09-08T11:51:08.108Z,29.39
2023-09-08T11:52:09.819Z,29.42
2023-09-08T11:53:11.625Z,29.42
2023-09-08T11:54:13.555Z,29.47
2023-09-08T11:55:16.066Z,29.42
2023-09-08T11:56:18.153Z,29.45
2023-09-08T11:57:20.684Z,29.29
2023-09-08T11:58:23.489Z,29.21
2023-09-08T11:59:26.553Z,29.12
2023-09-08T12:00:29.342Z,29.16
2023-09-08T12:01:31.129Z,29.13
2023-09-08T12:02:36.507Z,29.10
2023-09-08T12:03:53.131Z,29.09
2023-09-08T12:04:55.181Z,29.08
2023-09-08T12:05:56.903Z,29.13
2023-09-08T12:06:58.720Z,29.07
2023-09-08T12:08:00.430Z,29.00
2023-09-08T12:09:02.404Z,29.02
2023-09-08T12:10:09.201Z,29.15
2023-09-08T12:11:11.027Z,29.26
2023-09-08T12:12:13.752Z,29.21
2023-09-08T12:13:22.062Z,29.28
2023-09-08T12:14:23.744Z,29.38
2023-09-08T12:15:39.688Z,29.46
2023-09-08T12:16:42.860Z,29.53
2023-09-08T12:17:50.923Z,29.57
2023-09-08T12:18:52.649Z,29.57
2023-09-08T12:19:54.582Z,29.61
2023-09-08T12:21:05.175Z,29.66
2023-09-08T12:22:07.978Z,29.68
2023-09-08T12:23:23.267Z,29.65
2023-09-08T12:24:47.545Z,29.52
2023-09-08T12:25:51.638Z,29.52
2023-09-08T12:26:53.340Z,29.47
2023-09-08T12:27:55.652Z,29.41
2023-09-08T12:28:57.371Z,29.37
2023-09-08T12:30:01.150Z,29.37
2023-09-08T12:31:02.883Z,29.29
2023-09-08T12:32:04.959Z,29.22
2023-09-08T12:33:06.775Z,29.18
2023-09-08T12:34:08.503Z,29.23
2023-09-08T12:35:10.180Z,29.28
2023-09-08T12:36:19.447Z,29.37
2023-09-08T12:37:25.288Z,29.35
2023-09-08T12:38:32.089Z,29.22
2023-09-08T12:39:33.771Z,29.23
2023-09-08T12:40:38.377Z,29.24
2023-09-08T12:41:40.042Z,29.22
2023-09-08T12:42:42.838Z,29.26
2023-09-08T12:43:51.398Z,29.33
2023-09-08T12:44:53.068Z,29.38
2023-09-08T12:45:57.360Z,29.36
2023-09-08T12:46:59.371Z,29.21
2023-09-08T12:48:02.225Z,29.17
2023-09-08T12:49:03.907Z,29.12
2023-09-08T12:50:06.032Z,29.08
2023-09-08T12:51:07.684Z,29.06
2023-09-08T12:52:09.304Z,28.92
2023-09-08T12:53:10.983Z,29.01
2023-09-08T12:54:12.678Z,29.18
2023-09-08T12:55:14.272Z,29.22
2023-09-08T12:56:15.878Z,29.25
2023-09-08T12:57:17.540Z,29.31
2023-09-08T12:58:19.213Z,29.41
2023-09-08T12:59:20.837Z,29.40
2023-09-08T13:00:23.320Z,29.36
2023-09-08T13:01:25.010Z,29.37
2023-09-08T13:02:26.620Z,29.33
2023-09-08T13:03:28.218Z,29.36
2023-09-08T13:04:29.838Z,29.43
2023-09-08T13:05:31.688Z,29.51
2023-09-08T13:06:33.347Z,29.54
2023-09-08T13:07:35.481Z,29.56
2023-09-08T13:08:37.377Z,29.61
2023-09-08T13:09:39.281Z,29.67
2023-09-08T13:10:40.964Z,29.69
2023-09-08T13:11:43.581Z,29.71
2023-09-08T13:12:46.432Z,29.76
2023-09-08T13:13:48.232Z,29.75
2023-09-08T13:14:49.861Z,29.77
2023-09-08T13:15:51.689Z,29.79
2023-09-08T13:16:53.414Z,29.67
2023-09-08T13:17:55.070Z,29.63
2023-09-08T13:18:56.796Z,29.57
2023-09-08T13:19:58.423Z,29.56
2023-09-08T13:21:00.062Z,29.54
2023-09-08T13:22:01.715Z,29.59
2023-09-08T13:23:03.402Z,29.64
2023-09-08T13:24:08.145Z,29.68
2023-09-08T13:25:09.874Z,29.73
2023-09-08T13:26:11.724Z,29.79
2023-09-08T13:27:13.322Z,29.80
2023-09-08T13:28:14.979Z,29.73
2023-09-08T13:29:18.136Z,29.72
2023-09-08T13:30:20.153Z,29.75